createdAt,value
2022-09-09T00:02:25.687Z,19.45
2022-09-09T00:05:03.246Z,19.45
2022-09-09T00:07:44.387Z,19.48
2022-09-09T00:10:17.185Z,19.47
2022-09-09T00:13:12.459Z,19.38
2022-09-09T00:15:44.379Z,19.45
2022-09-09T00:18:29.830Z,19.48
2022-09-09T00:21:18.564Z,19.54
2022-09-09T00:23:51.828Z,19.64
2022-09-09T00:26:41.079Z,19.72
2022-09-09T00:29:16.652Z,19.74
2022-09-09T00:31:44.161Z,19.67
2022-09-09T00:34:22.008Z,19.75
2022-09-09T00:36:54.277Z,19.73
2022-09-09T00:39:40.132Z,19.75
2022-09-09T00:42:15.584Z,19.71
2022-09-09T00:45:13.823Z,19.79
2022-09-09T00:47:50.826Z,19.84
2022-09-09T00:50:27.253Z,19.74
2022-09-09T00:53:13.319Z,19.60
2022-09-09T00:55:50.095Z,19.64
2022-09-09T00:58:17.391Z,19.66
2022-09-09T01:00:51.193Z,19.71
2022-09-09T01:03:35.335Z,19.73
2022-09-09T01:06:31.324Z,19.74
2022-09-09T01:09:23.365Z,19.62
2022-09-09T01:11:58.750Z,19.61
2022-09-09T01:14:37.620Z,19.72
2022-09-09T01:17:16.551Z,19.73
2022-09-09T01:19:43.821Z,19.71
2022-09-09T01:23:01.913Z,19.76
2022-09-09T01:25:44.318Z,19.75
2022-09-09T01:28:17.017Z,19.78
2022-09-09T01:30:44.451Z,19.74
2022-09-09T01:33:18.172Z,19.73
2022-09-09T01:36:11.264Z,19.85
2022-09-09T01:38:38.927Z,19.68
2022-09-09T01:41:06.282Z,19.75
2022-09-09T01:43:33.902Z,19.64
2022-09-09T01:46:02.826Z,19.57
2022-09-09T01:48:32.449Z,19.46
2022-09-09T01:50:59.682Z,19.52
2022-09-09T01:53:26.942Z,19.43
2022-09-09T01:56:14.548Z,19.53
2022-09-09T01:59:06.213Z,19.60
2022-09-09T02:01:47.351Z,19.53
2022-09-09T02:04:37.572Z,19.54
2022-09-09T02:07:26.299Z,19.53
2022-09-09T02:10:06.318Z,19.51
2022-09-09T02:12:33.643Z,19.49
2022-09-09T02:15:10.970Z,19.46
2022-09-09T02:17:42.353Z,19.60
2022-09-09T02:20:14.009Z,19.59
2022-09-09T02:22:46.053Z,19.62
2022-09-09T02:25:16.802Z,19.65
2022-09-09T02:27:46.826Z,19.67
2022-09-09T02:30:14.623Z,19.76
2022-09-09T02:32:44.736Z,19.73
2022-09-09T02:35:16.324Z,19.74
2022-09-09T02:37:45.672Z,19.65
2022-09-09T02:40:15.535Z,19.55
2022-09-09T02:42:44.891Z,19.52
2022-09-09T02:45:15.093Z,19.50
2022-09-09T02:47:56.873Z,19.50
2022-09-09T02:50:32.052Z,19.47
2022-09-09T02:53:17.003Z,19.44
2022-09-09T02:56:00.435Z,19.39
2022-09-09T02:58:28.317Z,19.40
2022-09-09T03:00:57.038Z,19.39
2022-09-09T03:03:25.228Z,19.35
2022-09-09T03:05:52.533Z,19.33
2022-09-09T03:08:19.863Z,19.36
2022-09-09T03:10:47.165Z,19.36
2022-09-09T03:13:14.386Z,19.32
2022-09-09T03:15:43.703Z,19.38
2022-09-09T03:18:10.928Z,19.37
2022-09-09T03:20:38.216Z,19.36
2022-09-09T03:23:05.928Z,19.39
2022-09-09T03:25:33.445Z,19.42
2022-09-09T03:28:01.351Z,19.40
2022-09-09T03:30:29.299Z,19.35
2022-09-09T03:32:56.696Z,19.44
2022-09-09T03:35:24.008Z,19.40
2022-09-09T03:37:53.965Z,19.33
2022-09-09T03:40:21.274Z,19.34
2022-09-09T03:42:48.542Z,19.30
2022-09-09T03:45:15.858Z,19.29
2022-09-09T03:47:43.361Z,19.27
2022-09-09T03:50:14.368Z,19.25
2022-09-09T03:52:44.680Z,19.18
2022-09-09T03:55:14.933Z,19.11
2022-09-09T03:57:42.870Z,19.22
2022-09-09T04:00:10.995Z,19.18
2022-09-09T04:02:38.408Z,19.24
2022-09-09T04:05:06.731Z,20.30
2022-09-09T04:07:37.054Z,20.13
2022-09-09T04:10:05.287Z,20.46
2022-09-09T04:12:33.310Z,20.40
2022-09-09T04:15:01.271Z,20.64
2022-09-09T04:17:29.313Z,20.61
2022-09-09T04:19:57.194Z,20.58
2022-09-09T04:22:25.128Z,20.81
2022-09-09T04:24:53.022Z,20.72
2022-09-09T04:27:20.350Z,20.67
2022-09-09T04:29:47.650Z,20.72
2022-09-09T04:32:14.957Z,20.62
2022-09-09T04:34:42.528Z,20.53
2022-09-09T04:37:09.770Z,20.55
2022-09-09T04:39:39.968Z,20.59
2022-09-09T04:42:07.463Z,20.59
2022-09-09T04:44:37.827Z,20.46
2022-09-09T04:47:05.304Z,20.52
2022-09-09T04:49:32.650Z,20.63
2022-09-09T04:52:00.194Z,20.59
2022-09-09T04:54:28.658Z,20.62
2022-09-09T04:56:56.435Z,20.55
2022-09-09T04:59:26.145Z,20.59
2022-09-09T05:01:53.715Z,20.72
2022-09-09T05:04:22.201Z,20.67
2022-09-09T05:06:49.541Z,20.71
2022-09-09T05:09:19.303Z,20.62
2022-09-09T05:11:46.657Z,20.61
2022-09-09T05:14:14.416Z,20.49
2022-09-09T05:16:42.541Z,20.36
2022-09-09T05:19:10.071Z,20.49
2022-09-09T05:21:37.521Z,20.67
2022-09-09T05:24:08.478Z,20.73
2022-09-09T05:26:35.853Z,20.56
2022-09-09T05:29:05.623Z,20.76
2022-09-09T05:31:33.015Z,20.87
2022-09-09T05:34:00.491Z,20.80
2022-09-09T05:36:27.946Z,21.02
2022-09-09T05:38:58.125Z,21.09
2022-09-09T05:41:25.411Z,21.29
2022-09-09T05:43:52.779Z,21.32
2022-09-09T05:46:22.835Z,21.41
2022-09-09T05:48:51.479Z,21.69
2022-09-09T05:51:21.514Z,21.58
2022-09-09T05:53:49.891Z,21.71
2022-09-09T05:56:22.840Z,21.48
2022-09-09T05:58:50.770Z,21.38
2022-09-09T06:01:20.532Z,21.46
2022-09-09T06:03:49.390Z,21.26
2022-09-09T06:06:36.705Z,21.38
2022-09-09T06:09:05.893Z,21.40
2022-09-09T06:11:34.465Z,21.59
2022-09-09T06:14:01.761Z,21.82
2022-09-09T06:16:30.381Z,21.91
2022-09-09T06:18:58.385Z,21.86
2022-09-09T06:21:30.795Z,21.70
2022-09-09T06:24:01.000Z,21.95
2022-09-09T06:26:40.053Z,21.88
2022-09-09T06:29:09.002Z,21.87
2022-09-09T06:31:39.346Z,21.81
2022-09-09T06:34:08.373Z,21.93
2022-09-09T06:36:41.836Z,21.94
2022-09-09T06:39:14.660Z,21.98
2022-09-09T06:41:43.175Z,22.13
2022-09-09T06:44:10.468Z,22.29
2022-09-09T06:46:37.824Z,22.37
2022-09-09T06:49:05.165Z,22.31
2022-09-09T06:51:36.842Z,22.29
2022-09-09T06:54:05.271Z,22.25
2022-09-09T06:56:40.424Z,22.33
2022-09-09T06:59:08.894Z,22.41
2022-09-09T07:01:38.721Z,22.31
2022-09-09T07:04:06.599Z,22.39
2022-09-09T07:06:36.743Z,22.36
2022-09-09T07:09:07.064Z,22.39
2022-09-09T07:11:41.951Z,22.41
2022-09-09T07:14:10.200Z,22.34
2022-09-09T07:16:37.496Z,22.22
2022-09-09T07:19:05.507Z,22.27
2022-09-09T07:21:34.316Z,22.36
2022-09-09T07:24:02.057Z,22.35
2022-09-09T07:26:32.306Z,22.34
2022-09-09T07:28:59.761Z,22.47
2022-09-09T07:31:33.258Z,22.56
2022-09-09T07:34:01.335Z,22.55
2022-09-09T07:36:33.559Z,22.47
2022-09-09T07:39:07.360Z,22.51
2022-09-09T07:41:37.726Z,22.49
2022-09-09T07:44:14.312Z,22.46
2022-09-09T07:46:44.613Z,22.43
2022-09-09T07:49:13.359Z,22.42
2022-09-09T07:51:43.406Z,22.47
2022-09-09T07:54:13.734Z,22.49
2022-09-09T07:56:42.075Z,22.52
2022-09-09T07:59:09.911Z,22.59
2022-09-09T08:01:38.463Z,22.68
2022-09-09T08:04:08.667Z,22.82
2022-09-09T08:06:39.152Z,22.76
2022-09-09T08:09:10.598Z,22.84
2022-09-09T08:11:39.672Z,22.99
2022-09-09T08:14:09.312Z,23.08
2022-09-09T08:16:39.127Z,23.18
2022-09-09T08:19:09.760Z,23.29
2022-09-09T08:21:41.270Z,23.36
2022-09-09T08:24:10.672Z,23.47
2022-09-09T08:26:41.589Z,23.62
2022-09-09T08:29:11.254Z,23.52
2022-09-09T08:31:45.505Z,23.48
2022-09-09T08:34:12.917Z,23.65
2022-09-09T08:36:43.181Z,23.62
2022-09-09T08:39:12.555Z,23.57
2022-09-09T08:41:42.773Z,23.54
2022-09-09T08:44:10.166Z,23.68
2022-09-09T08:47:22.586Z,23.70
2022-09-09T08:50:11.903Z,23.67
2022-09-09T08:52:45.778Z,23.79
2022-09-09T08:55:13.111Z,23.76
2022-09-09T08:57:40.462Z,23.68
2022-09-09T09:00:11.339Z,23.79
2022-09-09T09:03:17.669Z,23.86
2022-09-09T09:06:08.077Z,23.85
2022-09-09T09:08:38.293Z,23.93
2022-09-09T09:11:06.060Z,24.01
2022-09-09T09:13:53.395Z,23.98
2022-09-09T09:16:39.993Z,23.98
2022-09-09T09:19:15.232Z,23.91
2022-09-09T09:21:43.566Z,23.87
2022-09-09T09:24:21.250Z,23.76
2022-09-09T09:26:52.904Z,23.85
2022-09-09T09:29:27.845Z,23.63
2022-09-09T09:32:06.286Z,23.47
2022-09-09T09:34:36.920Z,23.41
2022-09-09T09:37:17.207Z,23.44
2022-09-09T09:42:27.640Z,23.41
2022-09-09T09:44:55.044Z,23.44
2022-09-09T09:47:23.741Z,23.53
2022-09-09T09:49:58.884Z,23.65
2022-09-09T09:52:29.436Z,23.67
2022-09-09T09:55:01.778Z,23.68
2022-09-09T09:57:33.595Z,23.60
2022-09-09T10:00:22.488Z,23.53
2022-09-09T10:02:50.983Z,23.45
2022-09-09T10:05:35.033Z,23.39
2022-09-09T10:08:21.654Z,23.31
2022-09-09T10:11:05.746Z,23.29
2022-09-09T10:13:32.948Z,23.33
2022-09-09T10:16:27.910Z,23.27
2022-09-09T10:19:03.893Z,23.30
2022-09-09T10:22:03.236Z,23.42
2022-09-09T10:24:52.620Z,23.36
2022-09-09T10:27:41.970Z,23.30
2022-09-09T10:30:36.736Z,23.30
2022-09-09T10:33:06.956Z,23.27
2022-09-09T10:35:45.692Z,23.27
2022-09-09T10:38:42.832Z,23.37
2022-09-09T10:41:27.702Z,23.31
2022-09-09T10:44:00.407Z,23.27
2022-09-09T10:46:48.479Z,23.22
2022-09-09T10:53:04.689Z,23.18
2022-09-09T10:55:54.121Z,23.04
2022-09-09T10:59:00.756Z,23.00
2022-09-09T11:01:40.286Z,23.00
2022-09-09T11:04:20.109Z,23.00
2022-09-09T11:06:55.461Z,22.99
2022-09-09T11:09:28.304Z,23.03
2022-09-09T11:11:57.591Z,23.07
2022-09-09T11:14:36.808Z,23.13
2022-09-09T11:17:11.600Z,23.24
2022-09-09T11:19:43.854Z,23.21
2022-09-09T11:22:16.805Z,23.21
2022-09-09T11:25:28.944Z,23.21
2022-09-09T11:28:43.325Z,23.12
2022-09-09T11:31:43.365Z,23.01
2022-09-09T11:34:53.887Z,22.99
2022-09-09T11:38:16.530Z,22.92
2022-09-09T11:40:47.278Z,22.90
2022-09-09T11:43:26.797Z,22.92
2022-09-09T11:46:00.231Z,22.88
2022-09-09T11:48:34.232Z,22.92
2022-09-09T11:51:26.391Z,22.88
2022-09-09T11:54:02.007Z,22.94
2022-09-09T11:56:56.967Z,22.91
2022-09-09T11:59:34.421Z,22.93
2022-09-09T12:02:18.305Z,22.84
2022-09-09T12:04:57.221Z,22.82
2022-09-09T12:07:39.378Z,22.80
2022-09-09T12:10:09.103Z,22.85
2022-09-09T12:12:43.168Z,22.82
2022-09-09T12:15:11.245Z,22.83
2022-09-09T12:17:49.428Z,22.79
2022-09-09T12:20:27.971Z,22.81
2022-09-09T12:23:03.734Z,22.90
2022-09-09T12:25:58.703Z,22.94
2022-09-09T12:28:41.863Z,22.98
2022-09-09T12:31:58.925Z,23.04
2022-09-09T12:35:10.875Z,22.97
2022-09-09T12:37:45.819Z,23.07
2022-09-09T12:40:23.724Z,23.04
2022-09-09T12:43:00.608Z,23.09
2022-09-09T12:45:31.127Z,23.09
2022-09-09T12:48:02.782Z,23.09
2022-09-09T12:50:44.675Z,23.14
2022-09-09T12:53:26.333Z,23.11
2022-09-09T12:56:05.509Z,23.17
2022-09-09T12:58:38.145Z,23.21
2022-09-09T13:01:06.793Z,23.26
2022-09-09T13:03:44.148Z,23.36
2022-09-09T13:06:25.589Z,23.40
2022-09-09T13:09:01.536Z,23.29
2022-09-09T13:11:44.016Z,23.40
2022-09-09T13:14:26.494Z,23.42
2022-09-09T13:17:07.048Z,23.62
2022-09-09T13:19:45.790Z,23.88
2022-09-09T13:22:20.682Z,23.86
2022-09-09T13:24:48.420Z,23.99
2022-09-09T13:27:32.834Z,23.81
2022-09-09T13:30:02.941Z,23.76
2022-09-09T13:32:30.200Z,23.72
2022-09-09T13:35:03.050Z,23.81
2022-09-09T13:37:39.095Z,23.95
2022-09-09T13:40:07.936Z,24.00
2022-09-09T13:42:41.842Z,24.12
2022-09-09T13:45:24.365Z,24.16
2022-09-09T13:47:51.687Z,24.19
2022-09-09T13:50:25.948Z,24.28
2022-09-09T13:52:55.702Z,24.25
2022-09-09T13:55:25.117Z,24.20
2022-09-09T13:57:59.055Z,24.24
2022-09-09T14:00:34.321Z,24.27
2022-09-09T14:03:01.869Z,24.20
2022-09-09T14:05:30.982Z,24.22
2022-09-09T14:08:02.791Z,24.19
2022-09-09T14:10:31.344Z,24.23
2022-09-09T14:13:01.339Z,24.17
2022-09-09T14:15:28.694Z,24.19
2022-09-09T14:17:59.515Z,24.14
2022-09-09T14:20:26.787Z,24.13
2022-09-09T14:22:54.307Z,24.12
2022-09-09T14:25:21.983Z,24.14
2022-09-09T14:27:52.192Z,24.16
2022-09-09T14:30:19.506Z,24.23
2022-09-09T14:32:56.451Z,24.29
2022-09-09T14:35:23.729Z,24.34
2022-09-09T14:37:51.172Z,24.39
2022-09-09T14:40:18.648Z,24.39
2022-09-09T14:42:46.614Z,24.33
2022-09-09T14:45:20.503Z,24.28
2022-09-09T14:47:48.319Z,24.24
2022-09-09T14:50:18.944Z,24.22
2022-09-09T14:52:46.452Z,24.20
2022-09-09T14:55:14.245Z,24.19
2022-09-09T14:57:42.427Z,24.23
2022-09-09T15:00:11.578Z,24.22
2022-09-09T15:02:41.809Z,24.21
2022-09-09T15:05:09.939Z,24.26
2022-09-09T15:07:40.325Z,24.21
2022-09-09T15:10:08.025Z,24.24
2022-09-09T15:12:36.486Z,24.20
2022-09-09T15:15:07.896Z,24.19
2022-09-09T15:17:35.826Z,24.19
2022-09-09T15:20:06.525Z,24.14
2022-09-09T15:22:33.998Z,24.07
2022-09-09T15:25:02.536Z,24.04
2022-09-09T15:27:29.813Z,24.02
2022-09-09T15:30:02.903Z,23.99
2022-09-09T15:32:34.266Z,23.95
2022-09-09T15:35:03.628Z,23.92
2022-09-09T15:37:33.875Z,23.92
2022-09-09T15:40:01.422Z,23.91
2022-09-09T15:42:29.006Z,23.89
2022-09-09T15:44:57.138Z,23.89
2022-09-09T15:47:28.131Z,23.89
2022-09-09T15:49:56.434Z,23.90
2022-09-09T15:52:26.989Z,23.89
2022-09-09T15:54:54.442Z,23.82
2022-09-09T15:57:25.984Z,23.78
2022-09-09T15:59:54.235Z,23.73
2022-09-09T16:02:27.708Z,23.68
2022-09-09T16:04:57.341Z,23.60
2022-09-09T16:07:25.133Z,23.56
2022-09-09T16:09:59.031Z,23.49
2022-09-09T16:12:26.494Z,23.44
2022-09-09T16:14:59.350Z,23.42
2022-09-09T16:17:30.571Z,23.41
2022-09-09T16:20:01.306Z,23.39
2022-09-09T16:22:32.138Z,23.34
2022-09-09T16:24:59.580Z,23.32
2022-09-09T16:27:26.859Z,23.33
2022-09-09T16:30:03.431Z,23.35
2022-09-09T16:32:33.549Z,23.25
2022-09-09T16:35:03.931Z,23.20
2022-09-09T16:37:31.207Z,23.15
2022-09-09T16:40:01.309Z,23.09
2022-09-09T16:42:29.208Z,23.07
2022-09-09T16:44:56.979Z,23.04
2022-09-09T16:47:24.416Z,22.95
2022-09-09T16:49:52.353Z,22.88
2022-09-09T16:52:20.668Z,22.87
2022-09-09T16:54:51.590Z,22.88
2022-09-09T16:57:18.838Z,22.72
2022-09-09T16:59:46.514Z,22.73
2022-09-09T17:02:14.113Z,22.69
2022-09-09T17:04:45.113Z,22.70
2022-09-09T17:07:13.936Z,22.70
2022-09-09T17:09:44.383Z,22.58
2022-09-09T17:12:14.899Z,22.42
2022-09-09T17:14:45.893Z,22.38
2022-09-09T17:17:31.774Z,22.34
2022-09-09T17:20:11.943Z,22.54
2022-09-09T17:22:40.310Z,22.43
2022-09-09T17:25:08.900Z,22.36
2022-09-09T17:27:38.876Z,22.31
2022-09-09T17:30:10.615Z,22.17
2022-09-09T17:32:39.339Z,22.14
2022-09-09T17:35:07.060Z,22.26
2022-09-09T17:37:34.381Z,22.24
2022-09-09T17:40:02.247Z,22.24
2022-09-09T17:42:30.352Z,22.16
2022-09-09T17:44:57.595Z,22.14
2022-09-09T17:47:24.930Z,22.14
2022-09-09T17:49:55.107Z,22.13
2022-09-09T17:52:22.464Z,22.19
2022-09-09T17:54:49.861Z,22.20
2022-09-09T17:57:20.212Z,22.26
2022-09-09T17:59:47.948Z,22.12
2022-09-09T18:02:15.338Z,21.99
2022-09-09T18:04:42.738Z,21.88
2022-09-09T18:07:10.402Z,21.90
2022-09-09T18:09:37.919Z,21.89
2022-09-09T18:12:05.647Z,21.97
2022-09-09T18:14:34.240Z,21.98
2022-09-09T18:17:05.058Z,21.99
2022-09-09T18:19:35.732Z,21.94
2022-09-09T18:22:06.759Z,21.92
2022-09-09T18:24:34.619Z,21.79
2022-09-09T18:27:02.357Z,21.78
2022-09-09T18:29:30.034Z,21.70
2022-09-09T18:31:57.566Z,21.57
2022-09-09T18:34:26.912Z,21.52
2022-09-09T18:36:58.320Z,21.51
2022-09-09T18:39:29.517Z,21.51
2022-09-09T18:41:59.732Z,21.54
2022-09-09T18:44:33.540Z,21.51
2022-09-09T18:47:04.204Z,21.46
2022-09-09T18:49:35.240Z,21.59
2022-09-09T18:52:13.036Z,21.61
2022-09-09T18:55:04.062Z,21.65
2022-09-09T18:57:36.570Z,21.61
2022-09-09T19:00:05.913Z,21.56
2022-09-09T19:02:45.096Z,21.53
2022-09-09T19:05:18.234Z,21.45
2022-09-09T19:07:51.810Z,21.46
2022-09-09T19:10:21.184Z,21.46
2022-09-09T19:12:56.214Z,21.70
2022-09-09T19:15:26.879Z,21.55
2022-09-09T19:17:57.284Z,21.63
2022-09-09T19:20:25.211Z,21.52
2022-09-09T19:22:53.144Z,21.71
2022-09-09T19:25:24.508Z,21.56
2022-09-09T19:27:56.096Z,21.70
2022-09-09T19:30:26.660Z,21.46
2022-09-09T19:33:02.181Z,21.56
2022-09-09T19:35:30.042Z,21.93
2022-09-09T19:38:03.223Z,21.69
2022-09-09T19:40:30.592Z,21.44
2022-09-09T19:43:06.223Z,21.40
2022-09-09T19:45:35.494Z,21.50
2022-09-09T19:48:10.823Z,21.42
2022-09-09T19:50:47.628Z,21.44
2022-09-09T19:53:14.935Z,21.47
2022-09-09T19:55:42.697Z,21.46
2022-09-09T19:58:12.929Z,21.13
2022-09-09T20:00:40.543Z,20.78
2022-09-09T20:03:19.633Z,20.64
2022-09-09T20:05:52.569Z,20.52
2022-09-09T20:08:26.763Z,20.44
2022-09-09T20:10:57.277Z,20.48
2022-09-09T20:13:28.912Z,20.50
2022-09-09T20:15:58.531Z,20.44
2022-09-09T20:18:44.210Z,20.36
2022-09-09T20:21:25.160Z,20.18
2022-09-09T20:23:58.055Z,20.18
2022-09-09T20:26:26.552Z,20.10
2022-09-09T20:28:55.713Z,20.13
2022-09-09T20:31:26.898Z,20.14
2022-09-09T20:33:55.919Z,20.15
2022-09-09T20:36:31.913Z,20.15
2022-09-09T20:39:25.951Z,20.08
2022-09-09T20:41:53.270Z,20.06
2022-09-09T20:44:24.415Z,20.04
2022-09-09T20:46:53.931Z,20.01
2022-09-09T20:49:26.914Z,19.99
2022-09-09T20:51:54.414Z,19.96
2022-09-09T20:54:25.053Z,19.89
2022-09-09T20:56:54.960Z,19.77
2022-09-09T20:59:25.255Z,19.89
2022-09-09T21:01:53.567Z,19.90
2022-09-09T21:04:27.531Z,19.89
2022-09-09T21:06:55.872Z,19.84
2022-09-09T21:09:26.507Z,19.89
2022-09-09T21:11:54.033Z,19.82
2022-09-09T21:14:30.325Z,19.80
2022-09-09T21:17:00.668Z,19.75
2022-09-09T21:19:37.355Z,19.75
2022-09-09T21:22:05.057Z,19.70
2022-09-09T21:24:37.737Z,19.59
2022-09-09T21:27:05.692Z,19.55
2022-09-09T21:29:33.669Z,19.53
2022-09-09T21:32:00.953Z,19.57
2022-09-09T21:34:28.782Z,19.57
2022-09-09T21:37:01.364Z,19.56
2022-09-09T21:39:28.554Z,19.48
2022-09-09T21:41:58.819Z,19.47
2022-09-09T21:44:33.054Z,19.47
2022-09-09T21:47:04.467Z,19.46
2022-09-09T21:49:34.229Z,19.35
2022-09-09T21:52:03.811Z,19.31
2022-09-09T21:54:34.123Z,19.28
2022-09-09T21:57:07.482Z,19.24
2022-09-09T21:59:35.185Z,19.25
2022-09-09T22:02:02.513Z,19.26
2022-09-09T22:04:32.383Z,19.26
2022-09-09T22:07:02.136Z,19.28
2022-09-09T22:09:32.335Z,19.29
2022-09-09T22:12:00.059Z,19.27
2022-09-09T22:14:30.172Z,19.38
2022-09-09T22:16:57.443Z,19.32
2022-09-09T22:19:24.822Z,19.30
2022-09-09T22:21:52.031Z,19.30
2022-09-09T22:24:19.215Z,19.35
2022-09-09T22:26:46.473Z,19.28
2022-09-09T22:29:16.445Z,19.28
2022-09-09T22:31:43.791Z,19.28
2022-09-09T22:34:10.959Z,19.31
2022-09-09T22:36:42.029Z,19.20
2022-09-09T22:39:09.058Z,19.17
2022-09-09T22:41:36.626Z,19.18
2022-09-09T22:44:03.815Z,19.04
2022-09-09T22:46:31.065Z,19.16
2022-09-09T22:48:58.640Z,19.29
2022-09-09T22:51:26.214Z,19.17
2022-09-09T22:53:53.817Z,19.21
2022-09-09T22:56:21.567Z,19.25
2022-09-09T22:58:53.615Z,19.24
2022-09-09T23:01:21.812Z,19.24
2022-09-09T23:03:49.810Z,19.22
2022-09-09T23:06:20.159Z,19.29
2022-09-09T23:08:53.345Z,19.36
2022-09-09T23:11:20.527Z,19.19
2022-09-09T23:13:53.508Z,19.07
2022-09-09T23:16:26.517Z,19.04
2022-09-09T23:18:54.274Z,19.02
2022-09-09T23:21:23.430Z,19.02
2022-09-09T23:23:54.033Z,19.01
2022-09-09T23:26:23.347Z,19.02
2022-09-09T23:28:51.975Z,18.97
2022-09-09T23:31:22.792Z,18.80
2022-09-09T23:33:53.308Z,18.74
2022-09-09T23:36:23.270Z,18.82
2022-09-09T23:38:53.526Z,18.78
2022-09-09T23:41:20.763Z,18.71
2022-09-09T23:43:52.460Z,18.75
2022-09-09T23:46:22.875Z,18.74
2022-09-09T23:48:50.734Z,18.65
2022-09-09T23:51:21.720Z,18.64
2022-09-09T23:53:53.282Z,18.63
2022-09-09T23:56:22.517Z,18.68
2022-09-09T23:58:50.483Z,18.73
